Sublette, Missouri
Current Conditions -  °F | °C
As of 5:03 PM on Friday 19 Dec 2014 (Local Time) from KIRK Reporting Station
Haze Haze  
Wind Chill: 26°   Ceiling: 800
Heat Index: 32°   Visibility: 5mi
Dew Point: 30°   Wind: 7mph
Humidity: 92%   Direction: 110°ESE
Pressure: 30.23"   Gusts: NA
Location:  40.3435°N, 92.5364°W
Report Text: KIRK 192303Z AUTO 11006KT 5SM BR BKN008 OVC050 00/M01 A3023 RMK AO2 T00001011
Loading
Personal Weather Stations






























Interactive Weather Map New forecast layout! Learn more

10-Day Weather Forecast

Advertisements
Track Severe Weather on mobile